Terminal Aerodrome Forecast
Issued by NWS

Home | Current Version | Previous Version | Text Only | Print | Product List | Glossary On
Versions: 1 2 3 4 5 6 7 8 9 10 11 12 13 14 15 16 17
000
FTUS43 KPAH 191700
TAFCGI
TAF
KCGI 191720Z 1918/2018 03008KT P6SM SCT030
     FM200600 00000KT 6SM BR SKC
      TEMPO 2008/2012 3SM BR
     FM201300 02006KT P6SM SCT040=

USA.gov is the U.S. government's official web portal to all federal, state and local government web resources and services.